createdAt,value
2023-02-15T00:00:01.017Z,69.75
2023-02-15T00:02:27.830Z,69.79
2023-02-15T00:04:56.710Z,69.89
2023-02-15T00:07:23.519Z,69.82
2023-02-15T00:09:50.245Z,69.92
2023-02-15T00:12:17.840Z,70.42
2023-02-15T00:14:44.849Z,70.39
2023-02-15T00:17:11.661Z,70.27
2023-02-15T00:19:38.494Z,69.95
2023-02-15T00:22:05.211Z,69.56
2023-02-15T00:24:32.072Z,69.41
2023-02-15T00:26:59.051Z,69.73
2023-02-15T00:29:25.929Z,69.66
2023-02-15T00:31:53.247Z,69.51
2023-02-15T00:34:23.140Z,69.25
2023-02-15T00:36:50.628Z,68.94
2023-02-15T00:39:18.357Z,69.13
2023-02-15T00:41:46.374Z,68.72
2023-02-15T00:44:14.008Z,68.62
2023-02-15T00:46:40.808Z,68.67
2023-02-15T00:49:10.078Z,68.61
2023-02-15T00:51:38.862Z,68.39
2023-02-15T00:54:05.849Z,68.50
2023-02-15T00:56:32.581Z,68.53
2023-02-15T00:58:59.374Z,67.97
2023-02-15T01:01:26.953Z,68.14
2023-02-15T01:03:53.884Z,68.17
2023-02-15T01:06:20.760Z,68.46
2023-02-15T01:08:48.487Z,68.39
2023-02-15T01:11:23.379Z,68.17
2023-02-15T01:13:57.776Z,68.39
2023-02-15T01:16:27.454Z,68.09
2023-02-15T01:18:55.762Z,68.07
2023-02-15T01:21:25.267Z,68.13
2023-02-15T01:23:52.281Z,68.28
2023-02-15T01:26:19.202Z,68.26
2023-02-15T01:28:46.535Z,68.07
2023-02-15T01:31:16.697Z,68.26
2023-02-15T01:33:45.977Z,68.28
2023-02-15T01:36:12.821Z,68.43
2023-02-15T01:38:41.000Z,67.95
2023-02-15T01:41:27.318Z,68.15
2023-02-15T01:43:55.784Z,68.19
2023-02-15T01:46:53.103Z,68.30
2023-02-15T01:49:25.891Z,68.46
2023-02-15T01:51:53.974Z,68.21
2023-02-15T01:54:32.577Z,68.11
2023-02-15T01:57:05.588Z,67.75
2023-02-15T01:59:35.145Z,67.80
2023-02-15T02:02:04.081Z,68.20
2023-02-15T02:04:54.058Z,68.00
2023-02-15T02:07:39.894Z,67.68
2023-02-15T02:10:10.488Z,68.00
2023-02-15T02:12:39.721Z,67.90
2023-02-15T02:15:09.478Z,67.91
2023-02-15T02:18:02.997Z,67.66
2023-02-15T02:21:06.530Z,67.77
2023-02-15T02:23:50.201Z,67.68
2023-02-15T02:26:50.745Z,67.67
2023-02-15T02:29:17.476Z,67.29
2023-02-15T02:32:20.134Z,67.40
2023-02-15T02:34:57.869Z,67.40
2023-02-15T02:37:57.477Z,67.40
2023-02-15T02:40:35.364Z,67.65
2023-02-15T02:43:17.299Z,67.40
2023-02-15T02:45:53.353Z,67.38
2023-02-15T02:48:25.239Z,67.33
2023-02-15T02:50:52.083Z,67.29
2023-02-15T02:53:18.896Z,67.53
2023-02-15T02:55:53.105Z,67.37
2023-02-15T02:58:32.386Z,67.18
2023-02-15T03:01:06.788Z,67.59
2023-02-15T03:03:43.063Z,67.81
2023-02-15T03:06:29.130Z,67.44
2023-02-15T03:09:05.219Z,67.58
2023-02-15T03:11:32.062Z,67.31
2023-02-15T03:13:59.320Z,67.37
2023-02-15T03:16:27.480Z,67.05
2023-02-15T03:19:00.206Z,67.46
2023-02-15T03:21:58.392Z,67.42
2023-02-15T03:24:29.874Z,67.44
2023-02-15T03:26:58.074Z,67.78
2023-02-15T03:29:29.379Z,67.71
2023-02-15T03:32:01.805Z,67.52
2023-02-15T03:34:29.601Z,68.26
2023-02-15T03:37:08.238Z,67.98
2023-02-15T03:39:46.147Z,68.15
2023-02-15T03:42:26.087Z,68.23
2023-02-15T03:45:00.650Z,68.31
2023-02-15T03:47:32.387Z,68.73
2023-02-15T03:50:30.952Z,68.86
2023-02-15T03:53:00.046Z,69.47
2023-02-15T03:55:27.085Z,69.88
2023-02-15T03:58:12.381Z,70.10
2023-02-15T04:01:05.546Z,69.91
2023-02-15T04:03:41.564Z,70.02
2023-02-15T04:06:08.417Z,70.07
2023-02-15T04:08:53.983Z,69.97
2023-02-15T04:11:20.739Z,69.66
2023-02-15T04:13:47.489Z,69.63
2023-02-15T04:16:14.551Z,69.19
2023-02-15T04:19:02.601Z,69.16
2023-02-15T04:21:49.877Z,69.05
2023-02-15T04:24:35.991Z,69.28
2023-02-15T04:27:04.211Z,69.50
2023-02-15T04:29:31.389Z,69.67
2023-02-15T04:32:00.574Z,69.15
2023-02-15T04:34:27.448Z,68.96
2023-02-15T04:36:54.194Z,68.54
2023-02-15T04:39:20.935Z,68.14
2023-02-15T04:41:48.757Z,68.18
2023-02-15T04:44:15.759Z,68.44
2023-02-15T04:46:42.456Z,68.36
2023-02-15T04:49:10.403Z,68.53
2023-02-15T04:51:37.574Z,68.15
2023-02-15T04:54:04.491Z,68.14
2023-02-15T04:56:32.221Z,68.26
2023-02-15T04:58:58.995Z,68.45
2023-02-15T05:01:26.028Z,67.76
2023-02-15T05:03:52.881Z,67.79
2023-02-15T05:06:19.670Z,67.67
2023-02-15T05:08:46.474Z,67.43
2023-02-15T05:11:13.241Z,67.81
2023-02-15T05:13:39.961Z,67.53
2023-02-15T05:16:06.689Z,67.38
2023-02-15T05:18:33.608Z,67.40
2023-02-15T05:21:00.364Z,67.66
2023-02-15T05:23:27.163Z,67.69
2023-02-15T05:26:12.625Z,67.50
2023-02-15T05:28:39.753Z,67.52
2023-02-15T05:31:16.359Z,68.16
2023-02-15T05:33:44.309Z,67.74
2023-02-15T05:36:11.641Z,68.28
2023-02-15T05:38:39.405Z,68.35
2023-02-15T05:41:06.987Z,68.62
2023-02-15T05:43:34.583Z,68.23
2023-02-15T05:46:01.889Z,68.29
2023-02-15T05:48:29.438Z,68.50
2023-02-15T05:51:03.243Z,68.45
2023-02-15T05:53:31.990Z,68.39
2023-02-15T05:56:03.622Z,68.79
2023-02-15T05:58:33.932Z,68.57
2023-02-15T06:01:01.072Z,68.87
2023-02-15T06:03:29.684Z,68.64
2023-02-15T06:05:56.481Z,72.35
2023-02-15T06:08:23.211Z,70.90
2023-02-15T06:10:50.024Z,74.45
2023-02-15T06:13:16.847Z,70.90
2023-02-15T06:15:43.764Z,68.97
2023-02-15T06:18:10.632Z,67.23
2023-02-15T06:20:37.449Z,67.30
2023-02-15T06:23:04.273Z,66.82
2023-02-15T06:25:31.131Z,66.65
2023-02-15T06:27:57.880Z,66.98
2023-02-15T06:30:24.706Z,68.11
2023-02-15T06:32:51.515Z,66.39
2023-02-15T06:35:18.248Z,65.74
2023-02-15T06:37:47.627Z,65.97
2023-02-15T06:40:15.001Z,65.57
2023-02-15T06:42:42.723Z,65.87
2023-02-15T06:45:10.342Z,65.30
2023-02-15T06:47:37.482Z,65.47
2023-02-15T06:50:08.210Z,65.71
2023-02-15T06:52:35.048Z,65.73
2023-02-15T06:55:02.037Z,65.17
2023-02-15T06:57:28.857Z,65.58
2023-02-15T06:59:55.637Z,65.47
2023-02-15T07:02:22.465Z,65.49
2023-02-15T07:04:49.247Z,65.13
2023-02-15T07:07:16.351Z,65.52
2023-02-15T07:09:43.128Z,65.47
2023-02-15T07:12:29.377Z,65.14
2023-02-15T07:14:56.119Z,65.15
2023-02-15T07:17:38.538Z,64.52
2023-02-15T07:20:08.863Z,64.15
2023-02-15T07:22:37.375Z,64.36
2023-02-15T07:25:09.288Z,64.72
2023-02-15T07:27:36.382Z,64.89
2023-02-15T07:30:04.196Z,64.87
2023-02-15T07:32:32.370Z,64.81
2023-02-15T07:35:00.157Z,64.95
2023-02-15T07:37:28.057Z,64.81
2023-02-15T07:39:54.848Z,65.32
2023-02-15T07:42:23.046Z,64.92
2023-02-15T07:44:50.251Z,64.75
2023-02-15T07:47:17.164Z,64.93
2023-02-15T07:49:43.958Z,64.58
2023-02-15T07:52:10.780Z,65.17
2023-02-15T07:54:37.563Z,64.75
2023-02-15T07:57:04.480Z,64.72
2023-02-15T07:59:31.242Z,64.64
2023-02-15T08:01:58.268Z,64.41
2023-02-15T08:04:25.581Z,63.83
2023-02-15T08:06:56.112Z,64.28
2023-02-15T08:09:23.413Z,64.20
2023-02-15T08:11:50.481Z,64.24
2023-02-15T08:14:19.778Z,64.25
2023-02-15T08:16:51.057Z,64.19
2023-02-15T08:19:17.949Z,63.80
2023-02-15T08:21:50.715Z,63.55
2023-02-15T08:24:20.462Z,63.39
2023-02-15T08:26:48.737Z,63.81
2023-02-15T08:29:23.477Z,63.74
2023-02-15T08:31:53.759Z,63.49
2023-02-15T08:34:21.427Z,62.86
2023-02-15T08:36:48.302Z,62.98
2023-02-15T08:39:16.271Z,62.59
2023-02-15T08:41:45.900Z,62.22
2023-02-15T08:44:12.801Z,62.17
2023-02-15T08:46:42.935Z,61.99
2023-02-15T08:49:11.204Z,62.01
2023-02-15T08:51:39.725Z,61.54
2023-02-15T08:54:13.684Z,61.14
2023-02-15T08:56:42.684Z,61.16
2023-02-15T08:59:14.761Z,61.08
2023-02-15T09:01:41.623Z,61.76
2023-02-15T09:04:13.745Z,62.21
2023-02-15T09:06:41.912Z,61.66
2023-02-15T09:09:09.518Z,61.09
2023-02-15T09:11:42.235Z,60.45
2023-02-15T09:14:14.478Z,60.21
2023-02-15T09:16:42.944Z,60.37
2023-02-15T09:19:09.905Z,60.19
2023-02-15T09:21:38.369Z,60.16
2023-02-15T09:24:08.776Z,59.61
2023-02-15T09:26:38.951Z,58.91
2023-02-15T09:29:05.782Z,59.06
2023-02-15T09:31:37.842Z,58.67
2023-02-15T09:34:04.496Z,58.40
2023-02-15T09:36:39.753Z,58.42
2023-02-15T09:39:24.742Z,59.10
2023-02-15T09:42:12.061Z,58.41
2023-02-15T09:45:09.357Z,58.34
2023-02-15T09:47:48.637Z,58.02
2023-02-15T09:50:44.481Z,57.74
2023-02-15T09:53:20.686Z,57.88
2023-02-15T09:56:05.864Z,57.89
2023-02-15T09:58:43.126Z,57.75
2023-02-15T10:01:33.397Z,57.70
2023-02-15T10:04:18.148Z,57.20
2023-02-15T10:07:35.891Z,57.43
2023-02-15T10:10:14.555Z,57.33
2023-02-15T10:13:04.447Z,57.16
2023-02-15T10:16:16.735Z,57.13
2023-02-15T10:19:04.601Z,57.19
2023-02-15T10:21:49.796Z,57.41
2023-02-15T10:24:48.744Z,57.51
2023-02-15T10:27:22.940Z,58.14
2023-02-15T10:30:11.660Z,58.07
2023-02-15T10:32:59.971Z,58.30
2023-02-15T10:35:53.816Z,58.51
2023-02-15T10:38:34.003Z,57.93
2023-02-15T10:41:17.174Z,57.73
2023-02-15T10:43:59.450Z,57.95
2023-02-15T10:46:26.066Z,57.91
2023-02-15T10:49:09.535Z,57.83
2023-02-15T10:52:00.725Z,57.63
2023-02-15T10:55:01.078Z,57.42
2023-02-15T10:57:49.096Z,57.26
2023-02-15T11:01:01.574Z,57.02
2023-02-15T11:03:40.714Z,56.84
2023-02-15T11:06:14.842Z,56.98
2023-02-15T11:08:46.387Z,57.00
2023-02-15T11:11:40.399Z,57.02
2023-02-15T11:14:16.190Z,58.54
2023-02-15T11:16:49.848Z,60.47
2023-02-15T11:19:25.129Z,57.08
2023-02-15T11:21:56.048Z,56.41
2023-02-15T11:24:26.840Z,56.88
2023-02-15T11:27:18.452Z,57.12
2023-02-15T11:30:01.672Z,57.04
2023-02-15T11:32:36.252Z,57.00
2023-02-15T11:35:42.792Z,56.55
2023-02-15T11:38:29.893Z,57.03
2023-02-15T11:41:03.384Z,56.99
2023-02-15T11:43:39.237Z,56.92
2023-02-15T11:46:06.895Z,56.99
2023-02-15T11:48:33.784Z,56.32
2023-02-15T11:51:03.403Z,55.94
2023-02-15T11:53:34.657Z,55.52
2023-02-15T11:56:01.873Z,54.55
2023-02-15T11:58:52.445Z,54.21
2023-02-15T12:01:40.809Z,54.20
2023-02-15T12:04:26.042Z,53.67
2023-02-15T12:07:23.706Z,53.46
2023-02-15T12:10:00.829Z,53.34
2023-02-15T12:12:30.316Z,53.58
2023-02-15T12:14:59.484Z,53.60
2023-02-15T12:17:29.834Z,53.74
2023-02-15T12:20:07.683Z,53.56
2023-02-15T12:22:38.432Z,52.88
2023-02-15T12:25:23.009Z,52.53
2023-02-15T12:27:50.888Z,51.65
2023-02-15T12:30:32.919Z,51.81
2023-02-15T12:33:36.474Z,51.37
2023-02-15T12:36:12.367Z,51.10
2023-02-15T12:38:39.527Z,51.72
2023-02-15T12:41:24.181Z,51.55
2023-02-15T12:44:14.397Z,53.35
2023-02-15T12:46:41.392Z,53.99
2023-02-15T12:49:21.985Z,54.67
2023-02-15T12:51:53.441Z,55.00
2023-02-15T12:54:23.843Z,55.49
2023-02-15T12:56:50.938Z,55.29
2023-02-15T12:59:23.178Z,55.73
2023-02-15T13:01:52.211Z,56.00
2023-02-15T13:04:30.350Z,56.13
2023-02-15T13:07:03.143Z,56.19
2023-02-15T13:09:32.928Z,55.62
2023-02-15T13:12:17.543Z,55.41
2023-02-15T13:14:46.890Z,55.44
2023-02-15T13:17:16.390Z,55.29
2023-02-15T13:19:55.545Z,55.60
2023-02-15T13:22:36.846Z,55.43
2023-02-15T13:25:19.979Z,55.26
2023-02-15T13:27:49.544Z,55.13
2023-02-15T13:30:19.731Z,54.76
2023-02-15T13:32:49.464Z,55.50
2023-02-15T13:35:18.382Z,55.15
2023-02-15T13:38:35.451Z,55.32
2023-02-15T13:41:16.598Z,54.53
2023-02-15T13:44:08.282Z,53.94
2023-02-15T13:46:46.832Z,53.98
2023-02-15T13:49:29.721Z,54.27
2023-02-15T13:51:59.220Z,53.98
2023-02-15T13:54:54.044Z,52.82
2023-02-15T13:57:55.921Z,54.23
2023-02-15T14:00:24.213Z,53.38
2023-02-15T14:02:57.170Z,54.12
2023-02-15T14:05:43.035Z,54.54
2023-02-15T14:08:11.076Z,54.76
2023-02-15T14:11:21.070Z,54.94
2023-02-15T14:13:54.050Z,54.87
2023-02-15T14:16:34.783Z,54.49
2023-02-15T14:19:24.763Z,54.18
2023-02-15T14:22:09.373Z,53.46
2023-02-15T14:24:45.534Z,52.83
2023-02-15T14:27:15.068Z,52.93
2023-02-15T14:29:53.586Z,53.18
2023-02-15T14:32:25.763Z,53.79
2023-02-15T14:35:04.942Z,54.44
2023-02-15T14:38:04.013Z,53.20
2023-02-15T14:41:05.051Z,53.81
2023-02-15T14:43:57.095Z,53.98
2023-02-15T14:46:34.335Z,55.04
2023-02-15T14:49:04.001Z,54.94
2023-02-15T14:51:46.816Z,55.08
2023-02-15T14:54:22.536Z,54.47
2023-02-15T14:57:09.453Z,55.11
2023-02-15T14:59:46.324Z,54.97
2023-02-15T15:02:26.412Z,55.31
2023-02-15T15:04:53.162Z,55.50
2023-02-15T15:07:25.795Z,55.36
2023-02-15T15:10:16.760Z,56.14
2023-02-15T15:12:55.844Z,56.49
2023-02-15T15:15:28.574Z,56.69
2023-02-15T15:17:59.324Z,56.23
2023-02-15T15:20:51.834Z,57.17
2023-02-15T15:23:22.070Z,57.65
2023-02-15T15:26:12.538Z,58.26
2023-02-15T15:28:39.372Z,58.25
2023-02-15T15:31:21.195Z,58.89
2023-02-15T15:34:17.713Z,58.87
2023-02-15T15:37:16.445Z,58.83
2023-02-15T15:40:17.045Z,59.13
2023-02-15T15:43:31.427Z,59.92
2023-02-15T15:46:25.452Z,60.06
2023-02-15T15:48:53.466Z,60.17
2023-02-15T15:51:34.491Z,60.22
2023-02-15T15:54:03.992Z,60.53
2023-02-15T15:56:36.967Z,60.82
2023-02-15T15:59:08.175Z,60.74
2023-02-15T16:01:43.451Z,60.84
2023-02-15T16:04:22.947Z,61.14
2023-02-15T16:06:49.794Z,60.90
2023-02-15T16:09:28.893Z,61.61
2023-02-15T16:12:02.861Z,62.26
2023-02-15T16:14:40.442Z,62.55
2023-02-15T16:17:16.628Z,62.71
2023-02-15T16:19:44.602Z,62.93
2023-02-15T16:22:16.338Z,62.76
2023-02-15T16:25:16.928Z,63.24
2023-02-15T16:27:45.358Z,63.50
2023-02-15T16:30:23.611Z,63.65
2023-02-15T16:33:17.465Z,63.67
2023-02-15T16:35:56.691Z,63.78
2023-02-15T16:38:35.718Z,63.54
2023-02-15T16:41:02.840Z,63.65
2023-02-15T16:43:32.782Z,63.83
2023-02-15T16:46:15.359Z,64.34
2023-02-15T16:48:46.689Z,64.08
2023-02-15T16:51:23.544Z,64.39
2023-02-15T16:53:51.048Z,64.32
2023-02-15T16:56:23.971Z,64.46
2023-02-15T16:58:53.368Z,64.54
2023-02-15T17:01:24.918Z,64.37
2023-02-15T17:04:10.876Z,64.71
2023-02-15T17:06:37.759Z,64.80
2023-02-15T17:09:07.038Z,64.87
2023-02-15T17:11:42.225Z,64.91
2023-02-15T17:14:11.490Z,65.14
2023-02-15T17:16:52.551Z,64.85
2023-02-15T17:19:29.167Z,65.31
2023-02-15T17:22:07.730Z,65.48
2023-02-15T17:24:42.997Z,65.44
2023-02-15T17:27:22.226Z,65.74
2023-02-15T17:29:57.394Z,65.68
2023-02-15T17:32:27.225Z,65.57
2023-02-15T17:35:40.029Z,65.58
2023-02-15T17:38:15.961Z,65.82
2023-02-15T17:40:42.897Z,66.04
2023-02-15T17:43:09.742Z,66.06
2023-02-15T17:45:48.467Z,66.13
2023-02-15T17:48:22.917Z,66.11
2023-02-15T17:50:50.194Z,66.00
2023-02-15T17:53:19.498Z,66.12
2023-02-15T17:55:46.608Z,66.11
2023-02-15T17:58:16.036Z,66.16
2023-02-15T18:01:06.060Z,66.10
2023-02-15T18:04:05.172Z,66.13
2023-02-15T18:06:51.700Z,66.22
2023-02-15T18:09:39.299Z,66.21
2023-02-15T18:12:30.166Z,66.24
2023-02-15T18:14:58.487Z,66.16
2023-02-15T18:17:46.378Z,66.18
2023-02-15T18:20:35.166Z,66.19
2023-02-15T18:23:02.490Z,66.29
2023-02-15T18:25:29.910Z,66.09
2023-02-15T18:27:57.366Z,65.73
2023-02-15T18:30:28.941Z,65.63
2023-02-15T18:32:58.920Z,65.72
2023-02-15T18:35:30.667Z,65.58
2023-02-15T18:37:59.467Z,65.56
2023-02-15T18:40:28.890Z,65.50
2023-02-15T18:42:57.189Z,65.40
2023-02-15T18:45:28.645Z,65.69
2023-02-15T18:47:55.513Z,66.00
2023-02-15T18:50:24.681Z,66.20
2023-02-15T18:52:51.611Z,66.76
2023-02-15T18:55:27.765Z,66.82
2023-02-15T18:57:56.856Z,67.04
2023-02-15T19:00:32.434Z,67.14
2023-02-15T19:03:02.083Z,67.10
2023-02-15T19:05:30.305Z,67.12
2023-02-15T19:07:58.886Z,67.30
2023-02-15T19:10:27.986Z,67.33
2023-02-15T19:12:56.015Z,67.27
2023-02-15T19:15:30.224Z,67.35
2023-02-15T19:17:56.978Z,67.37
2023-02-15T19:20:28.120Z,67.46
2023-02-15T19:22:56.656Z,67.44
2023-02-15T19:25:28.565Z,67.17
2023-02-15T19:27:57.479Z,67.28
2023-02-15T19:30:30.256Z,67.32
2023-02-15T19:32:58.141Z,67.24
2023-02-15T19:35:29.571Z,67.36
2023-02-15T19:37:58.916Z,67.29
2023-02-15T19:40:28.828Z,67.33
2023-02-15T19:42:56.026Z,67.25
2023-02-15T19:45:28.993Z,67.44
2023-02-15T19:47:56.527Z,67.55
2023-02-15T19:50:26.368Z,67.45
2023-02-15T19:52:53.347Z,67.41
2023-02-15T19:55:34.262Z,67.28
2023-02-15T19:58:02.596Z,67.34
2023-02-15T20:00:33.847Z,67.54
2023-02-15T20:03:01.734Z,67.54
2023-02-15T20:05:30.336Z,67.64
2023-02-15T20:07:58.053Z,67.58
2023-02-15T20:10:28.377Z,67.55
2023-02-15T20:12:55.918Z,67.59
2023-02-15T20:15:27.604Z,67.62
2023-02-15T20:17:55.088Z,67.68
2023-02-15T20:20:23.760Z,67.56
2023-02-15T20:22:51.977Z,67.51
2023-02-15T20:25:26.493Z,67.88
2023-02-15T20:27:54.177Z,67.85
2023-02-15T20:30:24.387Z,67.98
2023-02-15T20:32:51.815Z,67.51
2023-02-15T20:35:23.280Z,67.85
2023-02-15T20:37:52.856Z,68.09
2023-02-15T20:40:26.394Z,68.17
2023-02-15T20:42:53.198Z,68.26
2023-02-15T20:45:21.508Z,68.12
2023-02-15T20:47:50.125Z,68.15
2023-02-15T20:50:19.839Z,67.71
2023-02-15T20:52:48.315Z,68.20
2023-02-15T20:55:27.034Z,68.20
2023-02-15T20:57:53.934Z,68.36
2023-02-15T21:00:23.944Z,68.62
2023-02-15T21:02:54.234Z,68.76
2023-02-15T21:05:23.797Z,69.07
2023-02-15T21:07:52.006Z,69.27
2023-02-15T21:10:24.421Z,69.20
2023-02-15T21:12:52.153Z,69.11
2023-02-15T21:15:31.284Z,69.25
2023-02-15T21:18:00.769Z,69.24
2023-02-15T21:20:29.710Z,69.62
2023-02-15T21:22:59.705Z,69.89
2023-02-15T21:25:34.382Z,69.68
2023-02-15T21:28:01.307Z,69.37
2023-02-15T21:30:28.558Z,69.84
2023-02-15T21:32:55.622Z,69.54
2023-02-15T21:35:22.544Z,69.18
2023-02-15T21:37:51.235Z,69.89
2023-02-15T21:40:17.970Z,69.64
2023-02-15T21:43:03.626Z,69.93
2023-02-15T21:45:49.042Z,69.84
2023-02-15T21:48:16.141Z,69.82
2023-02-15T21:51:02.270Z,69.42
2023-02-15T21:53:35.351Z,69.64
2023-02-15T21:56:06.807Z,69.40
2023-02-15T21:58:36.769Z,70.03
2023-02-15T22:01:05.964Z,70.12
2023-02-15T22:03:38.440Z,69.92
2023-02-15T22:06:06.135Z,70.32
2023-02-15T22:08:33.518Z,70.24
2023-02-15T22:11:00.293Z,70.49
2023-02-15T22:13:31.119Z,70.02
2023-02-15T22:15:58.618Z,70.05
2023-02-15T22:18:28.910Z,70.46
2023-02-15T22:20:56.973Z,70.59
2023-02-15T22:23:23.970Z,70.58
2023-02-15T22:25:57.002Z,70.50
2023-02-15T22:28:31.502Z,70.44
2023-02-15T22:30:58.290Z,70.70
2023-02-15T22:33:31.803Z,69.98
2023-02-15T22:35:59.553Z,70.18
2023-02-15T22:38:26.745Z,70.35
2023-02-15T22:40:56.898Z,69.95
2023-02-15T22:43:38.404Z,70.24
2023-02-15T22:46:13.632Z,70.09
2023-02-15T22:48:42.090Z,69.82
2023-02-15T22:51:13.422Z,70.14
2023-02-15T22:53:40.206Z,70.28
2023-02-15T22:56:12.462Z,70.22
2023-02-15T22:58:39.378Z,70.18
2023-02-15T23:01:06.287Z,69.96
2023-02-15T23:03:33.595Z,70.19
2023-02-15T23:06:00.506Z,70.31
2023-02-15T23:08:27.269Z,70.33
2023-02-15T23:10:56.853Z,70.29
2023-02-15T23:13:41.626Z,70.41
2023-02-15T23:16:14.448Z,70.44
2023-02-15T23:18:44.013Z,70.45
2023-02-15T23:21:29.865Z,70.39
2023-02-15T23:24:09.801Z,70.23
2023-02-15T23:26:36.603Z,70.55
2023-02-15T23:29:04.172Z,70.68
2023-02-15T23:31:34.202Z,70.61
2023-02-15T23:34:07.292Z,70.10
2023-02-15T23:36:39.493Z,70.12
2023-02-15T23:39:42.060Z,70.64
2023-02-15T23:42:13.123Z,70.58
2023-02-15T23:44:41.065Z,70.57
2023-02-15T23:47:20.677Z,70.66
2023-02-15T23:49:47.652Z,70.62
2023-02-15T23:52:14.397Z,70.46
2023-02-15T23:54:41.326Z,70.20
2023-02-15T23:57:11.680Z,70.21
2023-02-15T23:59:43.289Z,70.50
